sensor_id;sensor_type;location;lat;lon;timestamp;temperature;humidity
4223;DHT22;2125;51.436;14.138;2022-12-24T00:01:21;8.10;79.80
4223;DHT22;2125;51.436;14.138;2022-12-24T00:03:48;8.10;79.90
4223;DHT22;2125;51.436;14.138;2022-12-24T00:06:17;8.10;79.90
4223;DHT22;2125;51.436;14.138;2022-12-24T00:08:45;8.00;79.90
4223;DHT22;2125;51.436;14.138;2022-12-24T00:11:12;8.10;79.80
4223;DHT22;2125;51.436;14.138;2022-12-24T00:13:39;8.10;79.60
4223;DHT22;2125;51.436;14.138;2022-12-24T00:16:06;8.20;79.40
4223;DHT22;2125;51.436;14.138;2022-12-24T00:18:32;8.20;79.30
4223;DHT22;2125;51.436;14.138;2022-12-24T00:20:59;8.10;79.50
4223;DHT22;2125;51.436;14.138;2022-12-24T00:23:28;8.00;79.60
4223;DHT22;2125;51.436;14.138;2022-12-24T00:25:56;7.90;79.40
4223;DHT22;2125;51.436;14.138;2022-12-24T00:28:23;8.00;79.20
4223;DHT22;2125;51.436;14.138;2022-12-24T00:30:49;8.00;79.10
4223;DHT22;2125;51.436;14.138;2022-12-24T00:33:16;8.00;79.00
4223;DHT22;2125;51.436;14.138;2022-12-24T00:35:42;8.00;79.00
4223;DHT22;2125;51.436;14.138;2022-12-24T00:38:09;8.10;78.80
4223;DHT22;2125;51.436;14.138;2022-12-24T00:40:35;8.00;78.70
4223;DHT22;2125;51.436;14.138;2022-12-24T00:43:03;8.00;78.80
4223;DHT22;2125;51.436;14.138;2022-12-24T00:45:30;8.00;78.80
4223;DHT22;2125;51.436;14.138;2022-12-24T00:47:56;8.00;78.60
4223;DHT22;2125;51.436;14.138;2022-12-24T00:50:23;8.10;78.50
4223;DHT22;2125;51.436;14.138;2022-12-24T00:52:50;8.10;78.40
4223;DHT22;2125;51.436;14.138;2022-12-24T00:55:16;8.30;78.40
4223;DHT22;2125;51.436;14.138;2022-12-24T00:57:43;8.40;78.40
4223;DHT22;2125;51.436;14.138;2022-12-24T01:00:11;8.40;78.40
4223;DHT22;2125;51.436;14.138;2022-12-24T01:02:41;8.30;78.30
4223;DHT22;2125;51.436;14.138;2022-12-24T01:05:10;8.30;78.30
4223;DHT22;2125;51.436;14.138;2022-12-24T01:07:37;8.30;78.30
4223;DHT22;2125;51.436;14.138;2022-12-24T01:10:05;8.40;78.30
4223;DHT22;2125;51.436;14.138;2022-12-24T01:12:32;8.60;78.20
4223;DHT22;2125;51.436;14.138;2022-12-24T01:14:59;8.70;78.10
4223;DHT22;2125;51.436;14.138;2022-12-24T01:17:27;8.90;78.10
4223;DHT22;2125;51.436;14.138;2022-12-24T01:19:54;8.90;78.00
4223;DHT22;2125;51.436;14.138;2022-12-24T01:22:20;9.00;78.00
4223;DHT22;2125;51.436;14.138;2022-12-24T01:24:47;9.10;77.90
4223;DHT22;2125;51.436;14.138;2022-12-24T01:27:13;9.10;77.80
4223;DHT22;2125;51.436;14.138;2022-12-24T01:29:40;9.20;77.70
4223;DHT22;2125;51.436;14.138;2022-12-24T01:32:07;9.20;77.70
4223;DHT22;2125;51.436;14.138;2022-12-24T01:34:35;9.20;77.70
4223;DHT22;2125;51.436;14.138;2022-12-24T01:37:02;9.30;77.70
4223;DHT22;2125;51.436;14.138;2022-12-24T01:39:28;9.30;77.80
4223;DHT22;2125;51.436;14.138;2022-12-24T01:41:55;9.30;77.80
4223;DHT22;2125;51.436;14.138;2022-12-24T01:44:40;9.30;77.90
4223;DHT22;2125;51.436;14.138;2022-12-24T01:47:11;9.40;78.00
4223;DHT22;2125;51.436;14.138;2022-12-24T01:49:43;9.40;78.10
4223;DHT22;2125;51.436;14.138;2022-12-24T01:52:14;9.40;78.20
4223;DHT22;2125;51.436;14.138;2022-12-24T01:54:47;9.40;78.40
4223;DHT22;2125;51.436;14.138;2022-12-24T01:57:17;9.40;78.50
4223;DHT22;2125;51.436;14.138;2022-12-24T01:59:48;9.40;78.60
4223;DHT22;2125;51.436;14.138;2022-12-24T02:02:15;9.50;78.70
4223;DHT22;2125;51.436;14.138;2022-12-24T02:04:49;9.50;78.80
4223;DHT22;2125;51.436;14.138;2022-12-24T02:07:18;9.40;78.90
4223;DHT22;2125;51.436;14.138;2022-12-24T02:09:45;9.50;78.90
4223;DHT22;2125;51.436;14.138;2022-12-24T02:12:12;9.50;79.00
4223;DHT22;2125;51.436;14.138;2022-12-24T02:14:39;9.50;79.10
4223;DHT22;2125;51.436;14.138;2022-12-24T02:17:12;9.50;79.10
4223;DHT22;2125;51.436;14.138;2022-12-24T02:20:11;9.50;79.10
4223;DHT22;2125;51.436;14.138;2022-12-24T02:23:00;9.60;79.10
4223;DHT22;2125;51.436;14.138;2022-12-24T02:25:40;9.60;79.20
4223;DHT22;2125;51.436;14.138;2022-12-24T02:28:18;9.60;79.30
4223;DHT22;2125;51.436;14.138;2022-12-24T02:30:52;9.60;79.30
4223;DHT22;2125;51.436;14.138;2022-12-24T02:33:24;9.60;79.30
4223;DHT22;2125;51.436;14.138;2022-12-24T02:35:58;9.50;79.40
4223;DHT22;2125;51.436;14.138;2022-12-24T02:38:29;9.50;79.40
4223;DHT22;2125;51.436;14.138;2022-12-24T02:40:58;9.50;79.30
4223;DHT22;2125;51.436;14.138;2022-12-24T02:43:30;9.60;79.30
4223;DHT22;2125;51.436;14.138;2022-12-24T02:46:02;9.60;79.40
4223;DHT22;2125;51.436;14.138;2022-12-24T02:48:31;9.60;79.60
4223;DHT22;2125;51.436;14.138;2022-12-24T02:51:01;9.60;79.80
4223;DHT22;2125;51.436;14.138;2022-12-24T02:53:29;9.60;79.90
4223;DHT22;2125;51.436;14.138;2022-12-24T02:56:11;9.70;80.00
4223;DHT22;2125;51.436;14.138;2022-12-24T02:58:48;9.70;80.10
4223;DHT22;2125;51.436;14.138;2022-12-24T03:01:26;9.80;80.40
4223;DHT22;2125;51.436;14.138;2022-12-24T03:04:06;9.70;80.60
4223;DHT22;2125;51.436;14.138;2022-12-24T03:06:42;9.70;80.80
4223;DHT22;2125;51.436;14.138;2022-12-24T03:09:19;9.80;80.80
4223;DHT22;2125;51.436;14.138;2022-12-24T03:11:54;9.80;81.00
4223;DHT22;2125;51.436;14.138;2022-12-24T03:14:24;9.80;81.30
4223;DHT22;2125;51.436;14.138;2022-12-24T03:16:52;9.80;81.40
4223;DHT22;2125;51.436;14.138;2022-12-24T03:19:20;9.80;81.30
4223;DHT22;2125;51.436;14.138;2022-12-24T03:21:48;9.70;81.10
4223;DHT22;2125;51.436;14.138;2022-12-24T03:24:15;9.70;81.00
4223;DHT22;2125;51.436;14.138;2022-12-24T03:26:43;9.70;80.80
4223;DHT22;2125;51.436;14.138;2022-12-24T03:29:11;9.70;80.70
4223;DHT22;2125;51.436;14.138;2022-12-24T03:31:40;9.70;80.70
4223;DHT22;2125;51.436;14.138;2022-12-24T03:34:08;9.70;80.60
4223;DHT22;2125;51.436;14.138;2022-12-24T03:36:35;9.70;80.70
4223;DHT22;2125;51.436;14.138;2022-12-24T03:39:02;9.70;80.60
4223;DHT22;2125;51.436;14.138;2022-12-24T03:41:29;9.60;80.50
4223;DHT22;2125;51.436;14.138;2022-12-24T03:43:55;9.70;80.30
4223;DHT22;2125;51.436;14.138;2022-12-24T03:46:22;9.70;80.20
4223;DHT22;2125;51.436;14.138;2022-12-24T03:48:49;9.60;80.30
4223;DHT22;2125;51.436;14.138;2022-12-24T03:51:18;9.60;80.10
4223;DHT22;2125;51.436;14.138;2022-12-24T03:53:45;9.60;80.00
4223;DHT22;2125;51.436;14.138;2022-12-24T03:56:12;9.60;80.10
4223;DHT22;2125;51.436;14.138;2022-12-24T03:58:39;9.70;80.10
4223;DHT22;2125;51.436;14.138;2022-12-24T04:01:05;9.70;80.30
4223;DHT22;2125;51.436;14.138;2022-12-24T04:03:32;9.70;80.50
4223;DHT22;2125;51.436;14.138;2022-12-24T04:06:01;9.70;80.60
4223;DHT22;2125;51.436;14.138;2022-12-24T04:08:29;9.70;80.70
4223;DHT22;2125;51.436;14.138;2022-12-24T04:10:55;9.70;80.60
4223;DHT22;2125;51.436;14.138;2022-12-24T04:13:22;9.70;80.50
4223;DHT22;2125;51.436;14.138;2022-12-24T04:15:56;9.70;80.30
4223;DHT22;2125;51.436;14.138;2022-12-24T04:18:22;9.70;80.10
4223;DHT22;2125;51.436;14.138;2022-12-24T04:20:49;9.60;79.90
4223;DHT22;2125;51.436;14.138;2022-12-24T04:23:15;9.60;79.70
4223;DHT22;2125;51.436;14.138;2022-12-24T04:25:43;9.60;79.50
4223;DHT22;2125;51.436;14.138;2022-12-24T04:28:10;9.60;79.30
4223;DHT22;2125;51.436;14.138;2022-12-24T04:30:37;9.60;79.20
4223;DHT22;2125;51.436;14.138;2022-12-24T04:33:03;9.60;79.20
4223;DHT22;2125;51.436;14.138;2022-12-24T04:35:30;9.60;79.10
4223;DHT22;2125;51.436;14.138;2022-12-24T04:37:57;9.60;79.00
4223;DHT22;2125;51.436;14.138;2022-12-24T04:40:24;9.60;79.10
4223;DHT22;2125;51.436;14.138;2022-12-24T04:42:52;9.60;79.10
4223;DHT22;2125;51.436;14.138;2022-12-24T04:45:18;9.50;79.00
4223;DHT22;2125;51.436;14.138;2022-12-24T04:47:45;9.50;79.00
4223;DHT22;2125;51.436;14.138;2022-12-24T04:50:13;9.50;78.90
4223;DHT22;2125;51.436;14.138;2022-12-24T04:52:39;9.50;78.80
4223;DHT22;2125;51.436;14.138;2022-12-24T04:55:09;9.40;78.80
4223;DHT22;2125;51.436;14.138;2022-12-24T04:57:36;9.40;78.80
4223;DHT22;2125;51.436;14.138;2022-12-24T05:00:05;9.40;78.90
4223;DHT22;2125;51.436;14.138;2022-12-24T05:02:32;9.30;79.20
4223;DHT22;2125;51.436;14.138;2022-12-24T05:04:59;9.20;79.30
4223;DHT22;2125;51.436;14.138;2022-12-24T05:07:25;9.20;79.30
4223;DHT22;2125;51.436;14.138;2022-12-24T05:09:52;9.20;79.40
4223;DHT22;2125;51.436;14.138;2022-12-24T05:12:19;9.20;79.40
4223;DHT22;2125;51.436;14.138;2022-12-24T05:14:45;9.10;79.20
4223;DHT22;2125;51.436;14.138;2022-12-24T05:17:14;9.10;79.10
4223;DHT22;2125;51.436;14.138;2022-12-24T05:19:41;9.10;78.90
4223;DHT22;2125;51.436;14.138;2022-12-24T05:22:08;9.10;78.80
4223;DHT22;2125;51.436;14.138;2022-12-24T05:25:00;9.10;78.70
4223;DHT22;2125;51.436;14.138;2022-12-24T05:27:44;9.10;78.70
4223;DHT22;2125;51.436;14.138;2022-12-24T05:30:12;9.10;78.60
4223;DHT22;2125;51.436;14.138;2022-12-24T05:32:40;9.00;78.60
4223;DHT22;2125;51.436;14.138;2022-12-24T05:35:07;9.00;78.50
4223;DHT22;2125;51.436;14.138;2022-12-24T05:37:34;9.00;78.50
4223;DHT22;2125;51.436;14.138;2022-12-24T05:40:00;9.00;78.50
4223;DHT22;2125;51.436;14.138;2022-12-24T05:42:27;9.00;78.50
4223;DHT22;2125;51.436;14.138;2022-12-24T05:44:53;9.00;78.10
4223;DHT22;2125;51.436;14.138;2022-12-24T05:47:20;8.90;78.10
4223;DHT22;2125;51.436;14.138;2022-12-24T05:49:48;8.90;78.10
4223;DHT22;2125;51.436;14.138;2022-12-24T05:52:15;8.90;78.00
4223;DHT22;2125;51.436;14.138;2022-12-24T05:54:41;8.90;77.90
4223;DHT22;2125;51.436;14.138;2022-12-24T05:57:08;8.90;77.90
4223;DHT22;2125;51.436;14.138;2022-12-24T05:59:34;8.90;77.90
4223;DHT22;2125;51.436;14.138;2022-12-24T06:02:01;8.90;77.90
4223;DHT22;2125;51.436;14.138;2022-12-24T06:04:28;8.90;77.90
4223;DHT22;2125;51.436;14.138;2022-12-24T06:06:56;8.90;77.90
4223;DHT22;2125;51.436;14.138;2022-12-24T06:09:22;8.90;77.80
4223;DHT22;2125;51.436;14.138;2022-12-24T06:11:49;8.90;77.90
4223;DHT22;2125;51.436;14.138;2022-12-24T06:14:15;8.90;77.80
4223;DHT22;2125;51.436;14.138;2022-12-24T06:16:42;8.90;77.80
4223;DHT22;2125;51.436;14.138;2022-12-24T06:19:09;9.00;77.80
4223;DHT22;2125;51.436;14.138;2022-12-24T06:21:35;9.00;77.80
4223;DHT22;2125;51.436;14.138;2022-12-24T06:24:04;8.90;77.80
4223;DHT22;2125;51.436;14.138;2022-12-24T06:26:30;9.00;77.80
4223;DHT22;2125;51.436;14.138;2022-12-24T06:28:57;9.00;77.80
4223;DHT22;2125;51.436;14.138;2022-12-24T06:31:24;9.00;77.80
4223;DHT22;2125;51.436;14.138;2022-12-24T06:33:51;8.90;77.80
4223;DHT22;2125;51.436;14.138;2022-12-24T06:36:19;8.90;77.80
4223;DHT22;2125;51.436;14.138;2022-12-24T06:38:47;8.90;77.70
4223;DHT22;2125;51.436;14.138;2022-12-24T06:41:15;9.00;77.70
4223;DHT22;2125;51.436;14.138;2022-12-24T06:43:43;9.00;77.80
4223;DHT22;2125;51.436;14.138;2022-12-24T06:46:10;8.90;77.70
4223;DHT22;2125;51.436;14.138;2022-12-24T06:48:37;9.00;77.70
4223;DHT22;2125;51.436;14.138;2022-12-24T06:51:03;8.90;77.70
4223;DHT22;2125;51.436;14.138;2022-12-24T06:53:30;8.90;77.70
4223;DHT22;2125;51.436;14.138;2022-12-24T06:56:00;8.90;77.80
4223;DHT22;2125;51.436;14.138;2022-12-24T06:58:29;8.90;77.80
4223;DHT22;2125;51.436;14.138;2022-12-24T07:00:56;8.90;77.80
4223;DHT22;2125;51.436;14.138;2022-12-24T07:03:23;8.90;77.80
4223;DHT22;2125;51.436;14.138;2022-12-24T07:05:49;8.90;77.90
4223;DHT22;2125;51.436;14.138;2022-12-24T07:08:16;8.90;77.90
4223;DHT22;2125;51.436;14.138;2022-12-24T07:10:42;8.90;78.00
4223;DHT22;2125;51.436;14.138;2022-12-24T07:13:09;8.90;78.00
4223;DHT22;2125;51.436;14.138;2022-12-24T07:15:37;8.90;78.00
4223;DHT22;2125;51.436;14.138;2022-12-24T07:18:04;8.90;78.00
4223;DHT22;2125;51.436;14.138;2022-12-24T07:20:30;8.90;78.10
4223;DHT22;2125;51.436;14.138;2022-12-24T07:22:57;8.90;78.20
4223;DHT22;2125;51.436;14.138;2022-12-24T07:25:24;8.90;78.20
4223;DHT22;2125;51.436;14.138;2022-12-24T07:27:51;8.90;78.10
4223;DHT22;2125;51.436;14.138;2022-12-24T07:30:20;8.90;78.20
4223;DHT22;2125;51.436;14.138;2022-12-24T07:32:48;8.90;78.30
4223;DHT22;2125;51.436;14.138;2022-12-24T07:35:14;8.90;78.30
4223;DHT22;2125;51.436;14.138;2022-12-24T07:37:41;8.90;78.40
4223;DHT22;2125;51.436;14.138;2022-12-24T07:40:09;9.00;78.50
4223;DHT22;2125;51.436;14.138;2022-12-24T07:42:37;8.90;78.60
4223;DHT22;2125;51.436;14.138;2022-12-24T07:45:05;8.90;78.70
4223;DHT22;2125;51.436;14.138;2022-12-24T07:47:32;8.90;78.80
4223;DHT22;2125;51.436;14.138;2022-12-24T07:50:01;8.90;78.90
4223;DHT22;2125;51.436;14.138;2022-12-24T07:52:27;8.90;79.10
4223;DHT22;2125;51.436;14.138;2022-12-24T07:54:54;8.90;79.30
4223;DHT22;2125;51.436;14.138;2022-12-24T07:57:21;8.90;79.70
4223;DHT22;2125;51.436;14.138;2022-12-24T07:59:48;8.90;80.20
4223;DHT22;2125;51.436;14.138;2022-12-24T08:02:15;8.90;80.40
4223;DHT22;2125;51.436;14.138;2022-12-24T08:04:41;8.90;81.00
4223;DHT22;2125;51.436;14.138;2022-12-24T08:07:09;8.90;81.40
4223;DHT22;2125;51.436;14.138;2022-12-24T08:09:37;9.00;82.00
4223;DHT22;2125;51.436;14.138;2022-12-24T08:12:04;9.00;82.70
4223;DHT22;2125;51.436;14.138;2022-12-24T08:14:31;9.10;82.90
4223;DHT22;2125;51.436;14.138;2022-12-24T08:16:57;9.10;83.00
4223;DHT22;2125;51.436;14.138;2022-12-24T08:19:24;9.10;83.30
4223;DHT22;2125;51.436;14.138;2022-12-24T08:21:51;9.10;83.60
4223;DHT22;2125;51.436;14.138;2022-12-24T08:24:19;9.10;83.90
4223;DHT22;2125;51.436;14.138;2022-12-24T08:26:45;9.10;84.20
4223;DHT22;2125;51.436;14.138;2022-12-24T08:29:13;9.10;84.30
4223;DHT22;2125;51.436;14.138;2022-12-24T08:31:40;9.10;84.50
4223;DHT22;2125;51.436;14.138;2022-12-24T08:34:09;9.10;84.30
4223;DHT22;2125;51.436;14.138;2022-12-24T08:36:36;9.10;84.70
4223;DHT22;2125;51.436;14.138;2022-12-24T08:39:03;9.10;84.80
4223;DHT22;2125;51.436;14.138;2022-12-24T08:41:31;9.10;84.80
4223;DHT22;2125;51.436;14.138;2022-12-24T08:43:57;9.10;84.70
4223;DHT22;2125;51.436;14.138;2022-12-24T08:46:24;9.10;84.80
4223;DHT22;2125;51.436;14.138;2022-12-24T08:48:51;9.20;85.10
4223;DHT22;2125;51.436;14.138;2022-12-24T08:51:17;9.20;85.00
4223;DHT22;2125;51.436;14.138;2022-12-24T08:53:44;9.10;85.10
4223;DHT22;2125;51.436;14.138;2022-12-24T08:56:12;9.10;85.20
4223;DHT22;2125;51.436;14.138;2022-12-24T08:58:40;9.20;85.20
4223;DHT22;2125;51.436;14.138;2022-12-24T09:01:11;9.20;85.40
4223;DHT22;2125;51.436;14.138;2022-12-24T09:03:39;9.20;85.40
4223;DHT22;2125;51.436;14.138;2022-12-24T09:06:06;9.20;85.60
4223;DHT22;2125;51.436;14.138;2022-12-24T09:08:34;9.30;85.80
4223;DHT22;2125;51.436;14.138;2022-12-24T09:11:05;9.30;85.80
4223;DHT22;2125;51.436;14.138;2022-12-24T09:13:32;9.30;85.90
4223;DHT22;2125;51.436;14.138;2022-12-24T09:16:01;9.30;85.90
4223;DHT22;2125;51.436;14.138;2022-12-24T09:18:28;9.30;85.90
4223;DHT22;2125;51.436;14.138;2022-12-24T09:20:58;9.40;86.00
4223;DHT22;2125;51.436;14.138;2022-12-24T09:23:26;9.40;86.00
4223;DHT22;2125;51.436;14.138;2022-12-24T09:25:56;9.40;86.10
4223;DHT22;2125;51.436;14.138;2022-12-24T09:28:24;9.50;86.30
4223;DHT22;2125;51.436;14.138;2022-12-24T09:30:55;9.60;86.20
4223;DHT22;2125;51.436;14.138;2022-12-24T09:33:23;9.70;86.00
4223;DHT22;2125;51.436;14.138;2022-12-24T09:35:50;9.80;86.10
4223;DHT22;2125;51.436;14.138;2022-12-24T09:38:17;9.80;86.00
4223;DHT22;2125;51.436;14.138;2022-12-24T09:40:44;9.80;85.80
4223;DHT22;2125;51.436;14.138;2022-12-24T09:43:14;9.90;85.90
4223;DHT22;2125;51.436;14.138;2022-12-24T09:45:47;10.00;86.10
4223;DHT22;2125;51.436;14.138;2022-12-24T09:48:17;10.00;85.70
4223;DHT22;2125;51.436;14.138;2022-12-24T09:50:48;10.00;85.70
4223;DHT22;2125;51.436;14.138;2022-12-24T09:53:20;10.00;85.90
4223;DHT22;2125;51.436;14.138;2022-12-24T09:55:50;9.90;85.90
4223;DHT22;2125;51.436;14.138;2022-12-24T09:58:21;9.90;85.80
4223;DHT22;2125;51.436;14.138;2022-12-24T10:00:50;9.90;85.70
4223;DHT22;2125;51.436;14.138;2022-12-24T10:03:17;9.90;85.70
4223;DHT22;2125;51.436;14.138;2022-12-24T10:05:53;9.90;85.90
4223;DHT22;2125;51.436;14.138;2022-12-24T10:08:27;10.00;86.00
4223;DHT22;2125;51.436;14.138;2022-12-24T10:10:58;10.00;85.80
4223;DHT22;2125;51.436;14.138;2022-12-24T10:13:36;10.10;85.50
4223;DHT22;2125;51.436;14.138;2022-12-24T10:16:11;10.20;85.50
4223;DHT22;2125;51.436;14.138;2022-12-24T10:18:53;10.10;85.30
4223;DHT22;2125;51.436;14.138;2022-12-24T10:21:27;10.20;85.50
4223;DHT22;2125;51.436;14.138;2022-12-24T10:24:05;10.20;85.30
4223;DHT22;2125;51.436;14.138;2022-12-24T10:26:49;10.10;85.50
4223;DHT22;2125;51.436;14.138;2022-12-24T10:29:19;10.00;85.60
4223;DHT22;2125;51.436;14.138;2022-12-24T10:31:52;10.00;85.60
4223;DHT22;2125;51.436;14.138;2022-12-24T10:34:22;9.90;85.40
4223;DHT22;2125;51.436;14.138;2022-12-24T10:36:51;9.90;85.50
4223;DHT22;2125;51.436;14.138;2022-12-24T10:39:20;9.70;85.70
4223;DHT22;2125;51.436;14.138;2022-12-24T10:41:50;9.60;85.90
4223;DHT22;2125;51.436;14.138;2022-12-24T10:44:19;9.60;85.60
4223;DHT22;2125;51.436;14.138;2022-12-24T10:46:47;9.60;85.70
4223;DHT22;2125;51.436;14.138;2022-12-24T10:49:15;9.50;85.60
4223;DHT22;2125;51.436;14.138;2022-12-24T10:51:47;9.50;85.80
4223;DHT22;2125;51.436;14.138;2022-12-24T10:54:16;9.60;86.00
4223;DHT22;2125;51.436;14.138;2022-12-24T10:56:45;9.80;85.60
4223;DHT22;2125;51.436;14.138;2022-12-24T10:59:25;9.80;85.90
4223;DHT22;2125;51.436;14.138;2022-12-24T11:01:54;9.80;85.50
4223;DHT22;2125;51.436;14.138;2022-12-24T11:04:24;10.00;85.30
4223;DHT22;2125;51.436;14.138;2022-12-24T11:06:55;10.10;85.50
4223;DHT22;2125;51.436;14.138;2022-12-24T11:09:26;10.10;85.30
4223;DHT22;2125;51.436;14.138;2022-12-24T11:11:54;10.10;85.00
4223;DHT22;2125;51.436;14.138;2022-12-24T11:14:22;10.10;85.10
4223;DHT22;2125;51.436;14.138;2022-12-24T11:16:51;10.10;85.20
4223;DHT22;2125;51.436;14.138;2022-12-24T11:19:23;10.10;85.00
4223;DHT22;2125;51.436;14.138;2022-12-24T11:21:58;10.10;85.20
4223;DHT22;2125;51.436;14.138;2022-12-24T11:24:28;10.00;85.20
4223;DHT22;2125;51.436;14.138;2022-12-24T11:27:27;10.00;85.10
4223;DHT22;2125;51.436;14.138;2022-12-24T11:30:16;9.90;85.40
4223;DHT22;2125;51.436;14.138;2022-12-24T11:32:45;9.80;85.60
4223;DHT22;2125;51.436;14.138;2022-12-24T11:35:16;9.70;85.30
4223;DHT22;2125;51.436;14.138;2022-12-24T11:37:43;9.70;85.60
4223;DHT22;2125;51.436;14.138;2022-12-24T11:40:19;9.70;85.70
4223;DHT22;2125;51.436;14.138;2022-12-24T11:42:48;9.60;85.80
4223;DHT22;2125;51.436;14.138;2022-12-24T11:45:21;9.60;85.90
4223;DHT22;2125;51.436;14.138;2022-12-24T11:47:50;9.60;85.90
4223;DHT22;2125;51.436;14.138;2022-12-24T11:50:24;9.60;85.90
4223;DHT22;2125;51.436;14.138;2022-12-24T11:53:04;9.60;85.70
4223;DHT22;2125;51.436;14.138;2022-12-24T11:55:42;9.60;85.90
4223;DHT22;2125;51.436;14.138;2022-12-24T11:58:27;9.70;85.90
4223;DHT22;2125;51.436;14.138;2022-12-24T12:01:03;9.90;85.70
4223;DHT22;2125;51.436;14.138;2022-12-24T12:03:39;10.10;85.70
4223;DHT22;2125;51.436;14.138;2022-12-24T12:06:18;10.20;85.80
4223;DHT22;2125;51.436;14.138;2022-12-24T12:08:46;10.20;85.50
4223;DHT22;2125;51.436;14.138;2022-12-24T12:11:14;10.20;85.60
4223;DHT22;2125;51.436;14.138;2022-12-24T12:13:44;10.20;85.70
4223;DHT22;2125;51.436;14.138;2022-12-24T12:16:18;10.20;85.50
4223;DHT22;2125;51.436;14.138;2022-12-24T12:18:50;10.30;85.50
4223;DHT22;2125;51.436;14.138;2022-12-24T12:21:20;10.40;85.30
4223;DHT22;2125;51.436;14.138;2022-12-24T12:23:50;10.50;85.40
4223;DHT22;2125;51.436;14.138;2022-12-24T12:26:23;10.60;85.10
4223;DHT22;2125;51.436;14.138;2022-12-24T12:28:54;10.60;84.80
4223;DHT22;2125;51.436;14.138;2022-12-24T12:31:25;10.60;84.60
4223;DHT22;2125;51.436;14.138;2022-12-24T12:33:57;10.60;84.40
4223;DHT22;2125;51.436;14.138;2022-12-24T12:36:27;10.60;84.10
4223;DHT22;2125;51.436;14.138;2022-12-24T12:38:54;10.60;84.20
4223;DHT22;2125;51.436;14.138;2022-12-24T12:41:28;10.70;84.60
4223;DHT22;2125;51.436;14.138;2022-12-24T12:44:12;10.60;84.60
4223;DHT22;2125;51.436;14.138;2022-12-24T12:46:50;10.60;84.60
4223;DHT22;2125;51.436;14.138;2022-12-24T12:49:27;10.60;84.50
4223;DHT22;2125;51.436;14.138;2022-12-24T12:52:04;10.60;84.80
4223;DHT22;2125;51.436;14.138;2022-12-24T12:54:51;10.50;84.80
4223;DHT22;2125;51.436;14.138;2022-12-24T12:57:25;10.60;85.00
4223;DHT22;2125;51.436;14.138;2022-12-24T12:59:58;10.50;84.70
4223;DHT22;2125;51.436;14.138;2022-12-24T13:02:58;10.50;85.30
4223;DHT22;2125;51.436;14.138;2022-12-24T13:06:09;10.50;85.20
4223;DHT22;2125;51.436;14.138;2022-12-24T13:09:00;10.50;85.30
4223;DHT22;2125;51.436;14.138;2022-12-24T13:11:44;10.40;85.50
4223;DHT22;2125;51.436;14.138;2022-12-24T13:17:31;10.40;85.40
4223;DHT22;2125;51.436;14.138;2022-12-24T13:20:17;10.40;85.60
4223;DHT22;2125;51.436;14.138;2022-12-24T13:22:55;10.40;85.60
4223;DHT22;2125;51.436;14.138;2022-12-24T13:25:26;10.30;85.70
4223;DHT22;2125;51.436;14.138;2022-12-24T13:27:54;10.30;85.70
4223;DHT22;2125;51.436;14.138;2022-12-24T13:30:34;10.30;85.60
4223;DHT22;2125;51.436;14.138;2022-12-24T13:33:03;10.30;85.70
4223;DHT22;2125;51.436;14.138;2022-12-24T13:38:41;10.20;85.90
4223;DHT22;2125;51.436;14.138;2022-12-24T13:41:48;10.20;86.00
4223;DHT22;2125;51.436;14.138;2022-12-24T13:44:18;10.10;86.10
4223;DHT22;2125;51.436;14.138;2022-12-24T13:46:56;10.10;86.30
4223;DHT22;2125;51.436;14.138;2022-12-24T13:49:33;10.00;86.20
4223;DHT22;2125;51.436;14.138;2022-12-24T13:52:25;10.00;86.20
4223;DHT22;2125;51.436;14.138;2022-12-24T13:55:13;10.10;86.30
4223;DHT22;2125;51.436;14.138;2022-12-24T13:57:44;10.10;86.20
4223;DHT22;2125;51.436;14.138;2022-12-24T14:00:30;10.10;86.20
4223;DHT22;2125;51.436;14.138;2022-12-24T14:03:00;10.00;86.20
4223;DHT22;2125;51.436;14.138;2022-12-24T14:05:34;10.00;86.20
4223;DHT22;2125;51.436;14.138;2022-12-24T14:08:05;10.00;86.20
4223;DHT22;2125;51.436;14.138;2022-12-24T14:10:44;10.00;86.10
4223;DHT22;2125;51.436;14.138;2022-12-24T14:16:17;10.00;86.10
4223;DHT22;2125;51.436;14.138;2022-12-24T14:18:49;9.90;86.10
4223;DHT22;2125;51.436;14.138;2022-12-24T14:21:21;10.00;86.10
4223;DHT22;2125;51.436;14.138;2022-12-24T14:23:52;10.00;86.10
4223;DHT22;2125;51.436;14.138;2022-12-24T14:26:31;10.00;86.10
4223;DHT22;2125;51.436;14.138;2022-12-24T14:29:03;9.90;86.00
4223;DHT22;2125;51.436;14.138;2022-12-24T14:31:31;9.90;86.10
4223;DHT22;2125;51.436;14.138;2022-12-24T14:34:05;9.90;86.10
4223;DHT22;2125;51.436;14.138;2022-12-24T14:36:34;9.90;86.10
4223;DHT22;2125;51.436;14.138;2022-12-24T14:39:01;9.90;86.10
4223;DHT22;2125;51.436;14.138;2022-12-24T14:41:38;9.90;86.10
4223;DHT22;2125;51.436;14.138;2022-12-24T14:44:13;9.80;86.10
4223;DHT22;2125;51.436;14.138;2022-12-24T14:46:47;9.80;86.10
4223;DHT22;2125;51.436;14.138;2022-12-24T14:49:26;9.70;86.10
4223;DHT22;2125;51.436;14.138;2022-12-24T14:52:04;9.60;86.20
4223;DHT22;2125;51.436;14.138;2022-12-24T14:54:35;9.60;86.20
4223;DHT22;2125;51.436;14.138;2022-12-24T14:57:17;9.50;86.10
4223;DHT22;2125;51.436;14.138;2022-12-24T14:59:47;9.50;86.20
4223;DHT22;2125;51.436;14.138;2022-12-24T15:02:40;9.50;86.10
4223;DHT22;2125;51.436;14.138;2022-12-24T15:05:11;9.50;86.10
4223;DHT22;2125;51.436;14.138;2022-12-24T15:07:44;9.50;86.10
4223;DHT22;2125;51.436;14.138;2022-12-24T15:10:28;9.40;86.00
4223;DHT22;2125;51.436;14.138;2022-12-24T15:12:57;9.40;86.00
4223;DHT22;2125;51.436;14.138;2022-12-24T15:15:27;9.40;85.90
4223;DHT22;2125;51.436;14.138;2022-12-24T15:18:00;9.40;85.80
4223;DHT22;2125;51.436;14.138;2022-12-24T15:20:29;9.40;85.60
4223;DHT22;2125;51.436;14.138;2022-12-24T15:23:00;9.30;85.30
4223;DHT22;2125;51.436;14.138;2022-12-24T15:25:29;9.30;84.90
4223;DHT22;2125;51.436;14.138;2022-12-24T15:27:56;9.20;84.40
4223;DHT22;2125;51.436;14.138;2022-12-24T15:30:25;9.20;83.80
4223;DHT22;2125;51.436;14.138;2022-12-24T15:32:53;9.10;83.20
4223;DHT22;2125;51.436;14.138;2022-12-24T15:35:42;9.10;82.80
4223;DHT22;2125;51.436;14.138;2022-12-24T15:38:25;8.90;82.40
4223;DHT22;2125;51.436;14.138;2022-12-24T15:40:55;8.90;82.00
4223;DHT22;2125;51.436;14.138;2022-12-24T15:43:23;8.80;81.70
4223;DHT22;2125;51.436;14.138;2022-12-24T15:45:51;8.70;81.40
4223;DHT22;2125;51.436;14.138;2022-12-24T15:48:23;8.70;81.40
4223;DHT22;2125;51.436;14.138;2022-12-24T15:50:52;8.60;81.20
4223;DHT22;2125;51.436;14.138;2022-12-24T15:53:24;8.60;80.90
4223;DHT22;2125;51.436;14.138;2022-12-24T15:56:32;8.60;80.70
4223;DHT22;2125;51.436;14.138;2022-12-24T15:59:28;8.50;80.70
4223;DHT22;2125;51.436;14.138;2022-12-24T16:01:55;8.40;80.50
4223;DHT22;2125;51.436;14.138;2022-12-24T16:04:24;8.40;80.30
4223;DHT22;2125;51.436;14.138;2022-12-24T16:06:58;8.40;80.20
4223;DHT22;2125;51.436;14.138;2022-12-24T16:09:32;8.40;80.10
4223;DHT22;2125;51.436;14.138;2022-12-24T16:12:03;8.40;79.90
4223;DHT22;2125;51.436;14.138;2022-12-24T16:14:31;8.40;79.90
4223;DHT22;2125;51.436;14.138;2022-12-24T16:16:58;8.30;80.00
4223;DHT22;2125;51.436;14.138;2022-12-24T16:19:29;8.30;79.90
4223;DHT22;2125;51.436;14.138;2022-12-24T16:21:58;8.30;79.90
4223;DHT22;2125;51.436;14.138;2022-12-24T16:24:48;8.30;79.90
4223;DHT22;2125;51.436;14.138;2022-12-24T16:27:16;8.20;79.80
4223;DHT22;2125;51.436;14.138;2022-12-24T16:29:43;8.20;79.90
4223;DHT22;2125;51.436;14.138;2022-12-24T16:32:31;8.20;79.90